sensor_id;sensor_type;location;lat;lon;timestamp;pressure;altitude;pressure_sealevel;temperature;humidity
58979;BME280;44763;50.464;30.612;2024-03-29T00:00:53;99154.84;;;9.89;100.00
58979;BME280;44763;50.464;30.612;2024-03-29T00:02:54;99152.67;;;9.88;100.00
58979;BME280;44763;50.464;30.612;2024-03-29T00:04:55;99150.75;;;9.87;100.00
58979;BME280;44763;50.464;30.612;2024-03-29T00:06:55;99149.74;;;9.85;100.00
58979;BME280;44763;50.464;30.612;2024-03-29T00:08:56;99140.95;;;9.85;100.00
58979;BME280;44763;50.464;30.612;2024-03-29T00:10:57;99140.33;;;9.85;100.00
58979;BME280;44763;50.464;30.612;2024-03-29T00:12:57;99137.46;;;9.84;100.00
58979;BME280;44763;50.464;30.612;2024-03-29T00:14:58;99135.88;;;9.80;100.00
58979;BME280;44763;50.464;30.612;2024-03-29T00:16:59;99142.73;;;9.77;100.00
58979;BME280;44763;50.464;30.612;2024-03-29T00:18:59;99146.23;;;9.75;100.00
58979;BME280;44763;50.464;30.612;2024-03-29T00:21:00;99147.44;;;9.70;100.00
58979;BME280;44763;50.464;30.612;2024-03-29T00:23:01;99145.03;;;9.67;100.00
58979;BME280;44763;50.464;30.612;2024-03-29T00:25:03;99144.02;;;9.64;100.00
58979;BME280;44763;50.464;30.612;2024-03-29T00:27:03;99145.80;;;9.61;100.00
58979;BME280;44763;50.464;30.612;2024-03-29T00:29:05;99143.84;;;9.59;100.00
58979;BME280;44763;50.464;30.612;2024-03-29T00:31:05;99148.42;;;9.57;100.00
58979;BME280;44763;50.464;30.612;2024-03-29T00:33:06;99147.55;;;9.55;100.00
58979;BME280;44763;50.464;30.612;2024-03-29T00:35:07;99145.61;;;9.54;100.00
58979;BME280;44763;50.464;30.612;2024-03-29T00:37:08;99137.23;;;9.53;100.00
58979;BME280;44763;50.464;30.612;2024-03-29T00:39:09;99131.05;;;9.51;100.00
58979;BME280;44763;50.464;30.612;2024-03-29T00:41:12;99129.92;;;9.50;100.00
58979;BME280;44763;50.464;30.612;2024-03-29T00:43:12;99133.53;;;9.49;100.00
58979;BME280;44763;50.464;30.612;2024-03-29T00:45:13;99134.56;;;9.47;100.00
58979;BME280;44763;50.464;30.612;2024-03-29T00:47:14;99135.87;;;9.45;100.00
58979;BME280;44763;50.464;30.612;2024-03-29T00:49:15;99139.09;;;9.38;100.00
58979;BME280;44763;50.464;30.612;2024-03-29T00:51:15;99141.80;;;9.36;100.00
58979;BME280;44763;50.464;30.612;2024-03-29T00:53:16;99142.00;;;9.34;100.00
58979;BME280;44763;50.464;30.612;2024-03-29T00:55:17;99143.87;;;9.31;100.00
58979;BME280;44763;50.464;30.612;2024-03-29T00:57:18;99146.55;;;9.33;100.00
58979;BME280;44763;50.464;30.612;2024-03-29T00:59:19;99147.75;;;9.26;100.00
58979;BME280;44763;50.464;30.612;2024-03-29T01:01:21;99143.79;;;9.28;100.00
58979;BME280;44763;50.464;30.612;2024-03-29T01:03:21;99146.73;;;9.26;100.00
58979;BME280;44763;50.464;30.612;2024-03-29T01:05:22;99138.96;;;9.23;100.00
58979;BME280;44763;50.464;30.612;2024-03-29T01:07:23;99140.61;;;9.20;100.00
58979;BME280;44763;50.464;30.612;2024-03-29T01:09:24;99146.91;;;9.20;100.00
58979;BME280;44763;50.464;30.612;2024-03-29T01:11:24;99145.25;;;9.15;100.00
58979;BME280;44763;50.464;30.612;2024-03-29T01:13:25;99142.71;;;9.09;100.00
58979;BME280;44763;50.464;30.612;2024-03-29T01:15:26;99146.15;;;9.11;100.00
58979;BME280;44763;50.464;30.612;2024-03-29T01:17:26;99149.17;;;9.13;100.00
58979;BME280;44763;50.464;30.612;2024-03-29T01:19:27;99140.67;;;9.11;100.00
58979;BME280;44763;50.464;30.612;2024-03-29T01:21:28;99145.52;;;9.11;100.00
58979;BME280;44763;50.464;30.612;2024-03-29T01:23:29;99148.90;;;9.11;100.00
58979;BME280;44763;50.464;30.612;2024-03-29T01:25:29;99149.27;;;9.09;100.00
58979;BME280;44763;50.464;30.612;2024-03-29T01:27:30;99147.55;;;9.08;100.00
58979;BME280;44763;50.464;30.612;2024-03-29T01:29:31;99151.36;;;9.07;100.00
58979;BME280;44763;50.464;30.612;2024-03-29T01:31:31;99148.54;;;9.07;100.00
58979;BME280;44763;50.464;30.612;2024-03-29T01:33:33;99149.18;;;9.07;100.00
58979;BME280;44763;50.464;30.612;2024-03-29T01:35:37;99148.59;;;9.07;100.00
58979;BME280;44763;50.464;30.612;2024-03-29T01:37:37;99147.89;;;9.05;100.00
58979;BME280;44763;50.464;30.612;2024-03-29T01:39:39;99152.67;;;9.02;100.00
58979;BME280;44763;50.464;30.612;2024-03-29T01:41:40;99146.87;;;9.01;100.00
58979;BME280;44763;50.464;30.612;2024-03-29T01:43:40;99148.63;;;9.00;100.00
58979;BME280;44763;50.464;30.612;2024-03-29T01:45:42;99140.70;;;8.99;100.00
58979;BME280;44763;50.464;30.612;2024-03-29T01:47:46;99140.61;;;8.97;100.00
58979;BME280;44763;50.464;30.612;2024-03-29T01:49:47;99144.63;;;8.97;100.00
58979;BME280;44763;50.464;30.612;2024-03-29T01:51:48;99138.70;;;8.99;100.00
58979;BME280;44763;50.464;30.612;2024-03-29T01:53:52;99142.33;;;9.00;100.00
58979;BME280;44763;50.464;30.612;2024-03-29T01:55:54;99143.56;;;9.01;100.00
58979;BME280;44763;50.464;30.612;2024-03-29T01:57:57;99139.75;;;9.01;100.00
58979;BME280;44763;50.464;30.612;2024-03-29T01:59:58;99143.42;;;9.03;100.00
58979;BME280;44763;50.464;30.612;2024-03-29T02:01:59;99144.93;;;9.02;100.00
58979;BME280;44763;50.464;30.612;2024-03-29T02:04:00;99145.02;;;9.02;100.00
58979;BME280;44763;50.464;30.612;2024-03-29T02:06:02;99145.40;;;9.01;100.00
58979;BME280;44763;50.464;30.612;2024-03-29T02:08:04;99147.95;;;9.01;100.00
58979;BME280;44763;50.464;30.612;2024-03-29T02:10:09;99149.41;;;8.99;100.00
58979;BME280;44763;50.464;30.612;2024-03-29T02:12:13;99149.63;;;8.98;100.00
58979;BME280;44763;50.464;30.612;2024-03-29T02:14:14;99155.27;;;8.95;100.00
58979;BME280;44763;50.464;30.612;2024-03-29T02:16:14;99156.30;;;8.93;100.00
58979;BME280;44763;50.464;30.612;2024-03-29T02:18:15;99159.44;;;8.90;100.00
58979;BME280;44763;50.464;30.612;2024-03-29T02:20:16;99155.72;;;8.88;100.00
58979;BME280;44763;50.464;30.612;2024-03-29T02:22:17;99159.45;;;8.88;100.00
58979;BME280;44763;50.464;30.612;2024-03-29T02:24:18;99157.31;;;8.86;100.00
58979;BME280;44763;50.464;30.612;2024-03-29T02:26:19;99157.77;;;8.86;100.00
58979;BME280;44763;50.464;30.612;2024-03-29T02:28:21;99154.74;;;8.82;100.00
58979;BME280;44763;50.464;30.612;2024-03-29T02:30:22;99153.67;;;8.79;100.00
58979;BME280;44763;50.464;30.612;2024-03-29T02:32:23;99153.48;;;8.78;100.00
58979;BME280;44763;50.464;30.612;2024-03-29T02:34:24;99155.03;;;8.77;100.00
58979;BME280;44763;50.464;30.612;2024-03-29T02:36:25;99156.99;;;8.75;100.00
58979;BME280;44763;50.464;30.612;2024-03-29T02:38:25;99152.71;;;8.74;100.00
58979;BME280;44763;50.464;30.612;2024-03-29T02:40:26;99148.95;;;8.73;100.00
58979;BME280;44763;50.464;30.612;2024-03-29T02:42:26;99147.77;;;8.70;100.00
58979;BME280;44763;50.464;30.612;2024-03-29T02:44:27;99150.46;;;8.70;100.00
58979;BME280;44763;50.464;30.612;2024-03-29T02:46:28;99148.05;;;8.68;100.00
58979;BME280;44763;50.464;30.612;2024-03-29T02:48:28;99148.13;;;8.68;100.00
58979;BME280;44763;50.464;30.612;2024-03-29T02:50:29;99147.31;;;8.67;100.00
58979;BME280;44763;50.464;30.612;2024-03-29T02:52:30;99145.81;;;8.67;100.00
58979;BME280;44763;50.464;30.612;2024-03-29T02:54:31;99144.20;;;8.66;100.00
58979;BME280;44763;50.464;30.612;2024-03-29T02:56:31;99143.96;;;8.66;100.00
58979;BME280;44763;50.464;30.612;2024-03-29T02:58:34;99149.55;;;8.66;100.00
58979;BME280;44763;50.464;30.612;2024-03-29T03:00:35;99149.16;;;8.65;100.00
58979;BME280;44763;50.464;30.612;2024-03-29T03:02:39;99146.55;;;8.65;100.00
58979;BME280;44763;50.464;30.612;2024-03-29T03:04:40;99147.94;;;8.65;100.00
58979;BME280;44763;50.464;30.612;2024-03-29T03:06:40;99144.88;;;8.66;100.00
58979;BME280;44763;50.464;30.612;2024-03-29T03:08:41;99140.33;;;8.66;100.00
58979;BME280;44763;50.464;30.612;2024-03-29T03:11:00;99142.41;;;8.67;100.00
58979;BME280;44763;50.464;30.612;2024-03-29T03:13:02;99145.07;;;8.65;100.00
58979;BME280;44763;50.464;30.612;2024-03-29T03:15:03;99147.33;;;8.63;100.00
58979;BME280;44763;50.464;30.612;2024-03-29T03:17:04;99150.87;;;8.64;100.00
58979;BME280;44763;50.464;30.612;2024-03-29T03:19:04;99153.98;;;8.67;100.00
58979;BME280;44763;50.464;30.612;2024-03-29T03:21:05;99153.08;;;8.69;100.00
58979;BME280;44763;50.464;30.612;2024-03-29T03:23:06;99155.00;;;8.68;100.00
58979;BME280;44763;50.464;30.612;2024-03-29T03:25:07;99152.21;;;8.70;100.00
58979;BME280;44763;50.464;30.612;2024-03-29T03:27:08;99154.67;;;8.72;100.00
58979;BME280;44763;50.464;30.612;2024-03-29T03:29:08;99158.73;;;8.72;100.00
58979;BME280;44763;50.464;30.612;2024-03-29T03:31:10;99162.60;;;8.73;100.00
58979;BME280;44763;50.464;30.612;2024-03-29T03:33:11;99161.66;;;8.75;100.00
58979;BME280;44763;50.464;30.612;2024-03-29T03:35:12;99161.20;;;8.76;100.00
58979;BME280;44763;50.464;30.612;2024-03-29T03:37:12;99159.48;;;8.78;100.00
58979;BME280;44763;50.464;30.612;2024-03-29T03:39:13;99164.27;;;8.81;100.00
58979;BME280;44763;50.464;30.612;2024-03-29T03:41:14;99162.66;;;8.84;100.00
58979;BME280;44763;50.464;30.612;2024-03-29T03:43:16;99164.55;;;8.85;100.00
58979;BME280;44763;50.464;30.612;2024-03-29T03:45:16;99162.27;;;8.87;100.00
58979;BME280;44763;50.464;30.612;2024-03-29T03:47:17;99165.60;;;8.85;100.00
58979;BME280;44763;50.464;30.612;2024-03-29T03:49:18;99166.60;;;8.87;100.00
58979;BME280;44763;50.464;30.612;2024-03-29T03:51:18;99164.79;;;8.89;100.00
58979;BME280;44763;50.464;30.612;2024-03-29T03:53:19;99164.38;;;8.89;100.00
58979;BME280;44763;50.464;30.612;2024-03-29T03:55:19;99163.69;;;8.89;100.00
58979;BME280;44763;50.464;30.612;2024-03-29T03:57:20;99163.28;;;8.90;100.00
58979;BME280;44763;50.464;30.612;2024-03-29T03:59:21;99160.23;;;8.89;100.00
58979;BME280;44763;50.464;30.612;2024-03-29T04:01:21;99163.86;;;8.85;100.00
58979;BME280;44763;50.464;30.612;2024-03-29T04:03:22;99163.38;;;8.84;100.00
58979;BME280;44763;50.464;30.612;2024-03-29T04:05:23;99161.08;;;8.84;100.00
58979;BME280;44763;50.464;30.612;2024-03-29T04:07:25;99160.48;;;8.83;100.00
58979;BME280;44763;50.464;30.612;2024-03-29T04:09:26;99156.99;;;8.84;100.00
58979;BME280;44763;50.464;30.612;2024-03-29T04:11:26;99157.28;;;8.84;100.00
58979;BME280;44763;50.464;30.612;2024-03-29T04:13:27;99155.61;;;8.84;100.00
58979;BME280;44763;50.464;30.612;2024-03-29T04:15:28;99150.20;;;8.84;100.00
58979;BME280;44763;50.464;30.612;2024-03-29T04:17:29;99154.45;;;8.85;100.00
58979;BME280;44763;50.464;30.612;2024-03-29T04:19:33;99154.61;;;8.88;100.00
58979;BME280;44763;50.464;30.612;2024-03-29T04:21:34;99155.48;;;8.88;100.00
58979;BME280;44763;50.464;30.612;2024-03-29T04:23:34;99155.55;;;8.90;100.00
58979;BME280;44763;50.464;30.612;2024-03-29T04:25:35;99157.35;;;8.94;100.00
58979;BME280;44763;50.464;30.612;2024-03-29T04:27:36;99159.31;;;8.98;100.00
58979;BME280;44763;50.464;30.612;2024-03-29T04:29:36;99160.73;;;8.98;100.00
58979;BME280;44763;50.464;30.612;2024-03-29T04:31:37;99160.10;;;8.98;100.00
58979;BME280;44763;50.464;30.612;2024-03-29T04:33:38;99161.52;;;8.97;100.00
58979;BME280;44763;50.464;30.612;2024-03-29T04:35:39;99164.91;;;8.99;100.00
58979;BME280;44763;50.464;30.612;2024-03-29T04:37:39;99166.86;;;9.00;100.00
58979;BME280;44763;50.464;30.612;2024-03-29T04:39:42;99164.29;;;9.00;100.00
58979;BME280;44763;50.464;30.612;2024-03-29T04:41:43;99168.18;;;9.01;100.00
58979;BME280;44763;50.464;30.612;2024-03-29T04:43:44;99168.38;;;9.02;100.00
58979;BME280;44763;50.464;30.612;2024-03-29T04:45:45;99168.17;;;9.01;100.00
58979;BME280;44763;50.464;30.612;2024-03-29T04:47:45;99168.58;;;9.00;100.00
58979;BME280;44763;50.464;30.612;2024-03-29T04:49:46;99172.27;;;8.99;100.00
58979;BME280;44763;50.464;30.612;2024-03-29T04:51:47;99173.09;;;8.98;100.00
58979;BME280;44763;50.464;30.612;2024-03-29T04:53:47;99170.67;;;8.96;100.00
58979;BME280;44763;50.464;30.612;2024-03-29T04:55:54;99164.64;;;8.95;100.00
58979;BME280;44763;50.464;30.612;2024-03-29T04:57:55;99169.36;;;8.96;100.00
58979;BME280;44763;50.464;30.612;2024-03-29T04:59:55;99171.62;;;8.98;100.00
58979;BME280;44763;50.464;30.612;2024-03-29T05:01:59;99173.94;;;8.97;100.00
58979;BME280;44763;50.464;30.612;2024-03-29T05:03:59;99170.72;;;8.98;100.00
58979;BME280;44763;50.464;30.612;2024-03-29T05:06:00;99175.17;;;8.98;100.00
58979;BME280;44763;50.464;30.612;2024-03-29T05:08:01;99180.81;;;8.99;100.00
58979;BME280;44763;50.464;30.612;2024-03-29T05:10:02;99180.09;;;8.99;100.00
58979;BME280;44763;50.464;30.612;2024-03-29T05:12:10;99183.10;;;9.00;100.00
58979;BME280;44763;50.464;30.612;2024-03-29T05:14:10;99186.37;;;9.01;100.00
58979;BME280;44763;50.464;30.612;2024-03-29T05:16:11;99182.23;;;9.03;100.00
58979;BME280;44763;50.464;30.612;2024-03-29T05:18:12;99179.80;;;9.04;100.00
58979;BME280;44763;50.464;30.612;2024-03-29T05:20:12;99178.97;;;9.05;100.00
58979;BME280;44763;50.464;30.612;2024-03-29T05:22:14;99177.77;;;9.07;100.00
58979;BME280;44763;50.464;30.612;2024-03-29T05:24:14;99177.13;;;9.09;100.00
58979;BME280;44763;50.464;30.612;2024-03-29T05:26:15;99176.63;;;9.12;100.00
58979;BME280;44763;50.464;30.612;2024-03-29T05:28:16;99176.98;;;9.14;100.00
58979;BME280;44763;50.464;30.612;2024-03-29T05:30:17;99185.37;;;9.15;100.00
58979;BME280;44763;50.464;30.612;2024-03-29T05:32:18;99183.49;;;9.17;100.00
58979;BME280;44763;50.464;30.612;2024-03-29T05:34:19;99181.27;;;9.21;100.00
58979;BME280;44763;50.464;30.612;2024-03-29T05:36:20;99174.07;;;9.24;100.00
58979;BME280;44763;50.464;30.612;2024-03-29T05:38:21;99176.80;;;9.29;100.00
58979;BME280;44763;50.464;30.612;2024-03-29T05:40:22;99179.41;;;9.30;100.00
58979;BME280;44763;50.464;30.612;2024-03-29T05:42:30;99177.55;;;9.31;100.00
58979;BME280;44763;50.464;30.612;2024-03-29T05:44:31;99174.45;;;9.33;100.00
58979;BME280;44763;50.464;30.612;2024-03-29T05:46:32;99177.52;;;9.35;100.00
58979;BME280;44763;50.464;30.612;2024-03-29T05:48:32;99171.21;;;9.37;100.00
58979;BME280;44763;50.464;30.612;2024-03-29T05:50:33;99165.39;;;9.40;100.00
58979;BME280;44763;50.464;30.612;2024-03-29T05:52:34;99158.71;;;9.42;100.00
58979;BME280;44763;50.464;30.612;2024-03-29T05:54:35;99165.66;;;9.44;100.00
58979;BME280;44763;50.464;30.612;2024-03-29T05:56:36;99165.82;;;9.47;100.00
58979;BME280;44763;50.464;30.612;2024-03-29T05:58:37;99153.62;;;9.50;100.00
58979;BME280;44763;50.464;30.612;2024-03-29T06:00:37;99161.42;;;9.53;100.00
58979;BME280;44763;50.464;30.612;2024-03-29T06:02:38;99171.13;;;9.53;100.00
58979;BME280;44763;50.464;30.612;2024-03-29T06:04:39;99169.39;;;9.54;100.00
58979;BME280;44763;50.464;30.612;2024-03-29T06:06:40;99158.51;;;9.56;100.00
58979;BME280;44763;50.464;30.612;2024-03-29T06:08:40;99170.77;;;9.59;100.00
58979;BME280;44763;50.464;30.612;2024-03-29T06:10:41;99169.30;;;9.62;100.00
58979;BME280;44763;50.464;30.612;2024-03-29T06:12:43;99170.48;;;9.62;100.00
58979;BME280;44763;50.464;30.612;2024-03-29T06:14:43;99188.20;;;9.61;100.00
58979;BME280;44763;50.464;30.612;2024-03-29T06:17:03;99197.20;;;9.61;100.00
58979;BME280;44763;50.464;30.612;2024-03-29T06:19:22;99182.14;;;9.64;100.00
58979;BME280;44763;50.464;30.612;2024-03-29T06:21:23;99192.60;;;9.66;100.00
58979;BME280;44763;50.464;30.612;2024-03-29T06:23:23;99190.66;;;9.69;100.00
58979;BME280;44763;50.464;30.612;2024-03-29T06:25:24;99201.52;;;9.66;100.00
58979;BME280;44763;50.464;30.612;2024-03-29T06:27:25;99213.69;;;9.65;100.00
58979;BME280;44763;50.464;30.612;2024-03-29T06:29:26;99214.67;;;9.66;100.00
58979;BME280;44763;50.464;30.612;2024-03-29T06:31:27;99212.08;;;9.65;100.00
58979;BME280;44763;50.464;30.612;2024-03-29T06:33:28;99210.70;;;9.67;100.00
58979;BME280;44763;50.464;30.612;2024-03-29T06:35:29;99216.50;;;9.68;100.00
58979;BME280;44763;50.464;30.612;2024-03-29T06:37:30;99224.64;;;9.71;100.00
58979;BME280;44763;50.464;30.612;2024-03-29T06:39:30;99231.23;;;9.73;100.00
58979;BME280;44763;50.464;30.612;2024-03-29T06:41:31;99234.53;;;9.76;100.00
58979;BME280;44763;50.464;30.612;2024-03-29T06:43:32;99236.07;;;9.79;100.00
58979;BME280;44763;50.464;30.612;2024-03-29T06:45:33;99237.83;;;9.82;100.00
58979;BME280;44763;50.464;30.612;2024-03-29T06:47:33;99233.84;;;9.85;100.00
58979;BME280;44763;50.464;30.612;2024-03-29T06:49:35;99231.63;;;9.89;100.00
58979;BME280;44763;50.464;30.612;2024-03-29T06:51:36;99227.39;;;9.91;100.00
58979;BME280;44763;50.464;30.612;2024-03-29T06:53:36;99236.48;;;9.94;100.00
58979;BME280;44763;50.464;30.612;2024-03-29T06:55:38;99243.35;;;9.97;100.00
58979;BME280;44763;50.464;30.612;2024-03-29T06:57:39;99253.61;;;9.98;100.00
58979;BME280;44763;50.464;30.612;2024-03-29T06:59:39;99259.60;;;9.97;100.00
58979;BME280;44763;50.464;30.612;2024-03-29T07:01:40;99257.10;;;9.94;100.00
58979;BME280;44763;50.464;30.612;2024-03-29T07:03:41;99261.73;;;9.93;100.00
58979;BME280;44763;50.464;30.612;2024-03-29T07:05:42;99262.13;;;9.91;100.00
58979;BME280;44763;50.464;30.612;2024-03-29T07:07:42;99262.52;;;9.92;100.00
58979;BME280;44763;50.464;30.612;2024-03-29T07:09:46;99260.27;;;9.91;100.00
58979;BME280;44763;50.464;30.612;2024-03-29T07:11:47;99263.46;;;9.93;100.00
58979;BME280;44763;50.464;30.612;2024-03-29T07:13:48;99257.96;;;9.93;100.00
58979;BME280;44763;50.464;30.612;2024-03-29T07:15:52;99265.51;;;9.93;100.00
58979;BME280;44763;50.464;30.612;2024-03-29T07:17:53;99268.85;;;9.95;100.00
58979;BME280;44763;50.464;30.612;2024-03-29T07:19:54;99270.70;;;9.98;100.00
58979;BME280;44763;50.464;30.612;2024-03-29T07:21:55;99262.00;;;9.99;100.00
58979;BME280;44763;50.464;30.612;2024-03-29T07:23:56;99260.57;;;10.00;100.00
58979;BME280;44763;50.464;30.612;2024-03-29T07:26:01;99261.10;;;10.00;100.00
58979;BME280;44763;50.464;30.612;2024-03-29T07:28:06;99258.85;;;9.97;100.00
58979;BME280;44763;50.464;30.612;2024-03-29T07:30:08;99250.14;;;9.96;100.00
58979;BME280;44763;50.464;30.612;2024-03-29T07:32:10;99251.09;;;9.96;100.00
58979;BME280;44763;50.464;30.612;2024-03-29T07:34:10;99244.99;;;9.93;100.00
58979;BME280;44763;50.464;30.612;2024-03-29T07:36:11;99240.00;;;9.92;100.00
58979;BME280;44763;50.464;30.612;2024-03-29T07:38:13;99235.22;;;9.89;100.00
58979;BME280;44763;50.464;30.612;2024-03-29T07:40:15;99238.63;;;9.87;100.00
58979;BME280;44763;50.464;30.612;2024-03-29T07:42:16;99240.89;;;9.84;100.00
58979;BME280;44763;50.464;30.612;2024-03-29T07:44:17;99233.95;;;9.83;100.00
58979;BME280;44763;50.464;30.612;2024-03-29T07:46:18;99237.70;;;9.84;100.00
58979;BME280;44763;50.464;30.612;2024-03-29T07:48:18;99242.98;;;9.84;100.00
58979;BME280;44763;50.464;30.612;2024-03-29T07:50:19;99246.33;;;9.83;100.00
58979;BME280;44763;50.464;30.612;2024-03-29T07:52:20;99249.50;;;9.81;100.00
58979;BME280;44763;50.464;30.612;2024-03-29T07:54:22;99252.59;;;9.77;100.00
58979;BME280;44763;50.464;30.612;2024-03-29T07:56:23;99257.88;;;9.72;100.00
58979;BME280;44763;50.464;30.612;2024-03-29T07:58:25;99263.58;;;9.66;100.00
58979;BME280;44763;50.464;30.612;2024-03-29T08:00:26;99267.55;;;9.63;100.00
58979;BME280;44763;50.464;30.612;2024-03-29T08:02:27;99272.32;;;9.62;100.00
58979;BME280;44763;50.464;30.612;2024-03-29T08:04:28;99272.19;;;9.58;100.00
58979;BME280;44763;50.464;30.612;2024-03-29T08:06:29;99272.37;;;9.53;100.00
58979;BME280;44763;50.464;30.612;2024-03-29T08:08:33;99269.19;;;9.51;100.00
58979;BME280;44763;50.464;30.612;2024-03-29T08:10:35;99269.60;;;9.47;100.00
58979;BME280;44763;50.464;30.612;2024-03-29T08:12:36;99263.59;;;9.41;100.00
58979;BME280;44763;50.464;30.612;2024-03-29T08:14:43;99257.58;;;9.35;100.00
58979;BME280;44763;50.464;30.612;2024-03-29T08:16:56;99242.58;;;9.29;100.00
58979;BME280;44763;50.464;30.612;2024-03-29T08:18:56;99237.71;;;9.24;100.00
58979;BME280;44763;50.464;30.612;2024-03-29T08:20:58;99231.55;;;9.20;100.00
58979;BME280;44763;50.464;30.612;2024-03-29T08:22:59;99227.83;;;9.17;100.00
58979;BME280;44763;50.464;30.612;2024-03-29T08:25:00;99238.96;;;9.16;100.00
58979;BME280;44763;50.464;30.612;2024-03-29T08:27:01;99230.65;;;9.17;100.00
58979;BME280;44763;50.464;30.612;2024-03-29T08:29:03;99214.94;;;9.18;100.00
58979;BME280;44763;50.464;30.612;2024-03-29T08:31:06;99223.08;;;9.22;100.00
58979;BME280;44763;50.464;30.612;2024-03-29T08:33:08;99227.83;;;9.21;100.00
58979;BME280;44763;50.464;30.612;2024-03-29T08:35:08;99226.75;;;9.20;100.00
58979;BME280;44763;50.464;30.612;2024-03-29T08:37:09;99226.19;;;9.17;100.00
58979;BME280;44763;50.464;30.612;2024-03-29T08:39:10;99218.51;;;9.14;100.00
58979;BME280;44763;50.464;30.612;2024-03-29T08:41:12;99216.87;;;9.09;100.00
58979;BME280;44763;50.464;30.612;2024-03-29T08:43:12;99221.09;;;9.05;100.00
58979;BME280;44763;50.464;30.612;2024-03-29T08:45:13;99227.59;;;9.01;100.00
58979;BME280;44763;50.464;30.612;2024-03-29T08:47:14;99216.42;;;8.98;100.00
58979;BME280;44763;50.464;30.612;2024-03-29T08:49:15;99220.20;;;8.94;100.00
58979;BME280;44763;50.464;30.612;2024-03-29T08:51:16;99211.45;;;8.92;100.00
58979;BME280;44763;50.464;30.612;2024-03-29T08:53:17;99196.40;;;8.77;100.00
58979;BME280;44763;50.464;30.612;2024-03-29T08:55:17;99184.47;;;8.75;100.00
58979;BME280;44763;50.464;30.612;2024-03-29T08:57:18;99179.44;;;8.82;100.00
58979;BME280;44763;50.464;30.612;2024-03-29T08:59:19;99186.23;;;8.84;100.00
58979;BME280;44763;50.464;30.612;2024-03-29T09:01:19;99191.58;;;8.83;100.00
58979;BME280;44763;50.464;30.612;2024-03-29T09:03:21;99184.26;;;8.87;100.00
58979;BME280;44763;50.464;30.612;2024-03-29T09:05:22;99191.13;;;8.86;100.00
58979;BME280;44763;50.464;30.612;2024-03-29T09:07:23;99188.42;;;8.85;100.00
58979;BME280;44763;50.464;30.612;2024-03-29T09:09:24;99189.49;;;8.86;100.00
58979;BME280;44763;50.464;30.612;2024-03-29T09:11:25;99185.89;;;8.86;100.00
58979;BME280;44763;50.464;30.612;2024-03-29T09:13:26;99182.02;;;8.86;100.00
58979;BME280;44763;50.464;30.612;2024-03-29T09:16:54;99170.09;;;8.69;100.00
58979;BME280;44763;50.464;30.612;2024-03-29T09:18:55;99169.87;;;8.71;100.00
58979;BME280;44763;50.464;30.612;2024-03-29T09:20:57;99168.69;;;8.75;100.00
58979;BME280;44763;50.464;30.612;2024-03-29T09:22:59;99168.31;;;8.84;100.00
58979;BME280;44763;50.464;30.612;2024-03-29T09:25:00;99169.91;;;8.83;100.00
58979;BME280;44763;50.464;30.612;2024-03-29T09:27:01;99164.27;;;8.79;100.00
58979;BME280;44763;50.464;30.612;2024-03-29T09:29:02;99167.30;;;8.74;100.00
58979;BME280;44763;50.464;30.612;2024-03-29T09:31:03;99164.81;;;8.74;100.00
58979;BME280;44763;50.464;30.612;2024-03-29T09:33:04;99165.63;;;8.73;100.00
58979;BME280;44763;50.464;30.612;2024-03-29T09:35:07;99168.43;;;8.77;100.00
58979;BME280;44763;50.464;30.612;2024-03-29T09:37:08;99172.45;;;8.76;100.00
58979;BME280;44763;50.464;30.612;2024-03-29T09:39:08;99178.74;;;8.77;100.00
58979;BME280;44763;50.464;30.612;2024-03-29T09:41:16;99183.92;;;8.84;100.00
58979;BME280;44763;50.464;30.612;2024-03-29T09:43:18;99173.67;;;8.86;100.00
58979;BME280;44763;50.464;30.612;2024-03-29T09:45:20;99173.02;;;8.90;100.00
58979;BME280;44763;50.464;30.612;2024-03-29T09:47:23;99168.52;;;8.94;100.00
58979;BME280;44763;50.464;30.612;2024-03-29T09:49:27;99171.24;;;9.03;100.00
58979;BME280;44763;50.464;30.612;2024-03-29T09:51:29;99170.86;;;9.13;100.00
58979;BME280;44763;50.464;30.612;2024-03-29T09:53:31;99171.77;;;9.23;100.00
58979;BME280;44763;50.464;30.612;2024-03-29T09:55:35;99171.96;;;9.34;100.00
58979;BME280;44763;50.464;30.612;2024-03-29T09:57:37;99171.73;;;9.42;100.00
58979;BME280;44763;50.464;30.612;2024-03-29T09:59:38;99170.84;;;9.49;100.00
58979;BME280;44763;50.464;30.612;2024-03-29T10:01:38;99169.47;;;9.58;100.00
58979;BME280;44763;50.464;30.612;2024-03-29T10:03:40;99168.94;;;9.68;100.00
58979;BME280;44763;50.464;30.612;2024-03-29T10:05:43;99165.92;;;9.76;100.00
58979;BME280;44763;50.464;30.612;2024-03-29T10:07:45;99165.73;;;9.81;100.00
58979;BME280;44763;50.464;30.612;2024-03-29T10:09:47;99172.80;;;9.92;100.00
58979;BME280;44763;50.464;30.612;2024-03-29T10:11:48;99176.33;;;10.00;100.00
58979;BME280;44763;50.464;30.612;2024-03-29T10:13:48;99172.47;;;10.08;100.00
58979;BME280;44763;50.464;30.612;2024-03-29T10:15:50;99178.73;;;10.16;100.00
58979;BME280;44763;50.464;30.612;2024-03-29T10:17:54;99182.30;;;10.23;100.00
58979;BME280;44763;50.464;30.612;2024-03-29T10:19:54;99183.13;;;10.27;100.00
58979;BME280;44763;50.464;30.612;2024-03-29T10:22:05;99186.04;;;10.28;100.00
58979;BME280;44763;50.464;30.612;2024-03-29T10:24:16;99185.63;;;10.28;100.00
58979;BME280;44763;50.464;30.612;2024-03-29T10:26:21;99187.77;;;10.27;100.00
58979;BME280;44763;50.464;30.612;2024-03-29T10:28:22;99183.98;;;10.24;100.00
58979;BME280;44763;50.464;30.612;2024-03-29T10:30:25;99189.31;;;10.21;100.00
58979;BME280;44763;50.464;30.612;2024-03-29T10:32:25;99193.83;;;10.18;100.00
58979;BME280;44763;50.464;30.612;2024-03-29T10:34:26;99195.81;;;10.17;100.00
58979;BME280;44763;50.464;30.612;2024-03-29T10:36:29;99199.40;;;10.14;100.00